sensor_id;sensor_type;location;lat;lon;timestamp;P1;durP1;ratioP1;P2;durP2;ratioP2
41532;SDS011;27262;-35.248;149.138;2022-10-16T00:02:10;7.00;;;1.38;;
41532;SDS011;27262;-35.248;149.138;2022-10-16T00:04:41;5.90;;;1.55;;
41532;SDS011;27262;-35.248;149.138;2022-10-16T00:07:11;5.65;;;1.20;;
41532;SDS011;27262;-35.248;149.138;2022-10-16T00:09:41;10.50;;;1.88;;
41532;SDS011;27262;-35.248;149.138;2022-10-16T00:12:11;6.10;;;1.40;;
41532;SDS011;27262;-35.248;149.138;2022-10-16T00:14:41;8.77;;;1.55;;
41532;SDS011;27262;-35.248;149.138;2022-10-16T00:17:12;5.88;;;1.60;;
41532;SDS011;27262;-35.248;149.138;2022-10-16T00:19:42;7.55;;;1.70;;
41532;SDS011;27262;-35.248;149.138;2022-10-16T00:22:12;6.43;;;1.65;;
41532;SDS011;27262;-35.248;149.138;2022-10-16T00:24:43;7.15;;;1.25;;
41532;SDS011;27262;-35.248;149.138;2022-10-16T00:27:13;11.65;;;2.03;;
41532;SDS011;27262;-35.248;149.138;2022-10-16T00:29:43;6.45;;;1.58;;
41532;SDS011;27262;-35.248;149.138;2022-10-16T00:32:13;7.90;;;1.90;;
41532;SDS011;27262;-35.248;149.138;2022-10-16T00:34:43;7.68;;;1.45;;
41532;SDS011;27262;-35.248;149.138;2022-10-16T00:37:14;7.97;;;1.67;;
41532;SDS011;27262;-35.248;149.138;2022-10-16T00:39:44;10.55;;;2.10;;
41532;SDS011;27262;-35.248;149.138;2022-10-16T00:42:18;7.00;;;1.63;;
41532;SDS011;27262;-35.248;149.138;2022-10-16T00:47:22;7.25;;;1.15;;
41532;SDS011;27262;-35.248;149.138;2022-10-16T00:50:06;5.03;;;1.42;;
41532;SDS011;27262;-35.248;149.138;2022-10-16T00:52:39;7.35;;;1.27;;
41532;SDS011;27262;-35.248;149.138;2022-10-16T00:55:13;6.43;;;1.67;;
41532;SDS011;27262;-35.248;149.138;2022-10-16T00:57:43;7.93;;;1.50;;
41532;SDS011;27262;-35.248;149.138;2022-10-16T01:00:17;7.25;;;1.65;;
41532;SDS011;27262;-35.248;149.138;2022-10-16T01:03:00;8.18;;;1.85;;
41532;SDS011;27262;-35.248;149.138;2022-10-16T01:05:39;3.35;;;1.13;;
41532;SDS011;27262;-35.248;149.138;2022-10-16T01:08:29;6.90;;;1.58;;
41532;SDS011;27262;-35.248;149.138;2022-10-16T01:13:57;8.95;;;1.75;;
41532;SDS011;27262;-35.248;149.138;2022-10-16T01:16:36;7.90;;;1.58;;
41532;SDS011;27262;-35.248;149.138;2022-10-16T01:19:45;7.55;;;1.95;;
41532;SDS011;27262;-35.248;149.138;2022-10-16T01:22:33;8.23;;;1.63;;
41532;SDS011;27262;-35.248;149.138;2022-10-16T01:25:16;6.10;;;1.98;;
41532;SDS011;27262;-35.248;149.138;2022-10-16T01:27:58;8.68;;;1.60;;
41532;SDS011;27262;-35.248;149.138;2022-10-16T01:30:30;5.78;;;1.60;;
41532;SDS011;27262;-35.248;149.138;2022-10-16T01:33:05;6.78;;;1.60;;
41532;SDS011;27262;-35.248;149.138;2022-10-16T01:35:53;5.10;;;1.02;;
41532;SDS011;27262;-35.248;149.138;2022-10-16T01:38:46;4.65;;;1.45;;
41532;SDS011;27262;-35.248;149.138;2022-10-16T01:41:31;6.22;;;1.45;;
41532;SDS011;27262;-35.248;149.138;2022-10-16T01:44:14;3.95;;;1.10;;
41532;SDS011;27262;-35.248;149.138;2022-10-16T01:46:50;5.03;;;1.15;;
41532;SDS011;27262;-35.248;149.138;2022-10-16T01:49:24;5.03;;;1.20;;
41532;SDS011;27262;-35.248;149.138;2022-10-16T01:51:59;2.70;;;1.20;;
41532;SDS011;27262;-35.248;149.138;2022-10-16T01:54:32;11.32;;;2.13;;
41532;SDS011;27262;-35.248;149.138;2022-10-16T01:57:05;9.18;;;1.58;;
41532;SDS011;27262;-35.248;149.138;2022-10-16T01:59:42;8.35;;;1.63;;
41532;SDS011;27262;-35.248;149.138;2022-10-16T02:02:15;5.88;;;1.30;;
41532;SDS011;27262;-35.248;149.138;2022-10-16T02:04:50;5.32;;;1.33;;
41532;SDS011;27262;-35.248;149.138;2022-10-16T02:07:27;6.93;;;1.35;;
41532;SDS011;27262;-35.248;149.138;2022-10-16T02:09:59;5.38;;;1.20;;
41532;SDS011;27262;-35.248;149.138;2022-10-16T02:12:31;7.68;;;1.40;;
41532;SDS011;27262;-35.248;149.138;2022-10-16T02:15:04;7.05;;;1.23;;
41532;SDS011;27262;-35.248;149.138;2022-10-16T02:17:34;5.05;;;1.20;;
41532;SDS011;27262;-35.248;149.138;2022-10-16T02:20:05;6.50;;;1.48;;
41532;SDS011;27262;-35.248;149.138;2022-10-16T02:22:37;5.95;;;1.10;;
41532;SDS011;27262;-35.248;149.138;2022-10-16T02:25:11;5.05;;;1.23;;
41532;SDS011;27262;-35.248;149.138;2022-10-16T02:28:28;6.22;;;1.23;;
41532;SDS011;27262;-35.248;149.138;2022-10-16T02:30:43;5.68;;;1.55;;
41532;SDS011;27262;-35.248;149.138;2022-10-16T02:33:16;5.35;;;1.25;;
41532;SDS011;27262;-35.248;149.138;2022-10-16T02:35:48;5.60;;;1.17;;
41532;SDS011;27262;-35.248;149.138;2022-10-16T02:38:20;5.70;;;1.23;;
41532;SDS011;27262;-35.248;149.138;2022-10-16T02:40:51;4.75;;;1.08;;
41532;SDS011;27262;-35.248;149.138;2022-10-16T02:43:22;4.35;;;1.30;;
41532;SDS011;27262;-35.248;149.138;2022-10-16T02:45:53;7.15;;;1.27;;
41532;SDS011;27262;-35.248;149.138;2022-10-16T02:48:24;6.90;;;1.27;;
41532;SDS011;27262;-35.248;149.138;2022-10-16T02:50:54;4.50;;;1.35;;
41532;SDS011;27262;-35.248;149.138;2022-10-16T02:53:26;5.50;;;1.20;;
41532;SDS011;27262;-35.248;149.138;2022-10-16T02:55:57;5.47;;;1.48;;
41532;SDS011;27262;-35.248;149.138;2022-10-16T02:58:27;7.90;;;1.30;;
41532;SDS011;27262;-35.248;149.138;2022-10-16T03:00:58;4.03;;;1.38;;
41532;SDS011;27262;-35.248;149.138;2022-10-16T03:03:29;3.17;;;0.88;;
41532;SDS011;27262;-35.248;149.138;2022-10-16T03:05:59;6.60;;;1.10;;
41532;SDS011;27262;-35.248;149.138;2022-10-16T03:08:29;3.20;;;0.95;;
41532;SDS011;27262;-35.248;149.138;2022-10-16T03:10:59;5.30;;;1.10;;
41532;SDS011;27262;-35.248;149.138;2022-10-16T03:13:32;5.38;;;1.35;;
41532;SDS011;27262;-35.248;149.138;2022-10-16T03:16:02;2.13;;;0.80;;
41532;SDS011;27262;-35.248;149.138;2022-10-16T03:18:33;3.13;;;0.93;;
41532;SDS011;27262;-35.248;149.138;2022-10-16T03:21:03;3.15;;;1.08;;
41532;SDS011;27262;-35.248;149.138;2022-10-16T03:23:33;5.40;;;1.00;;
41532;SDS011;27262;-35.248;149.138;2022-10-16T03:26:03;4.28;;;1.35;;
41532;SDS011;27262;-35.248;149.138;2022-10-16T03:28:34;6.13;;;1.10;;
41532;SDS011;27262;-35.248;149.138;2022-10-16T03:31:04;2.10;;;0.73;;
41532;SDS011;27262;-35.248;149.138;2022-10-16T03:33:34;7.07;;;1.30;;
41532;SDS011;27262;-35.248;149.138;2022-10-16T03:36:05;2.05;;;0.77;;
41532;SDS011;27262;-35.248;149.138;2022-10-16T03:38:35;3.60;;;1.00;;
41532;SDS011;27262;-35.248;149.138;2022-10-16T03:41:05;4.00;;;1.38;;
41532;SDS011;27262;-35.248;149.138;2022-10-16T03:43:36;3.53;;;1.13;;
41532;SDS011;27262;-35.248;149.138;2022-10-16T03:46:06;6.25;;;0.90;;
41532;SDS011;27262;-35.248;149.138;2022-10-16T03:48:36;4.20;;;1.02;;
41532;SDS011;27262;-35.248;149.138;2022-10-16T03:51:08;3.15;;;1.02;;
41532;SDS011;27262;-35.248;149.138;2022-10-16T03:53:38;4.05;;;0.80;;
41532;SDS011;27262;-35.248;149.138;2022-10-16T03:56:08;3.13;;;0.82;;
41532;SDS011;27262;-35.248;149.138;2022-10-16T03:58:38;4.22;;;0.80;;
41532;SDS011;27262;-35.248;149.138;2022-10-16T04:01:09;4.00;;;0.70;;
41532;SDS011;27262;-35.248;149.138;2022-10-16T04:03:39;4.10;;;1.00;;
41532;SDS011;27262;-35.248;149.138;2022-10-16T04:06:09;2.65;;;0.93;;
41532;SDS011;27262;-35.248;149.138;2022-10-16T04:08:41;4.35;;;1.23;;
41532;SDS011;27262;-35.248;149.138;2022-10-16T04:11:12;4.97;;;0.88;;
41532;SDS011;27262;-35.248;149.138;2022-10-16T04:13:42;2.78;;;0.90;;
41532;SDS011;27262;-35.248;149.138;2022-10-16T04:16:13;4.75;;;1.25;;
41532;SDS011;27262;-35.248;149.138;2022-10-16T04:18:43;6.22;;;0.93;;
41532;SDS011;27262;-35.248;149.138;2022-10-16T04:21:13;3.55;;;0.80;;
41532;SDS011;27262;-35.248;149.138;2022-10-16T04:23:43;3.80;;;0.77;;
41532;SDS011;27262;-35.248;149.138;2022-10-16T04:26:13;4.30;;;1.08;;
41532;SDS011;27262;-35.248;149.138;2022-10-16T04:28:44;3.65;;;1.25;;
41532;SDS011;27262;-35.248;149.138;2022-10-16T04:31:14;3.33;;;0.70;;
41532;SDS011;27262;-35.248;149.138;2022-10-16T04:33:45;3.63;;;0.88;;
41532;SDS011;27262;-35.248;149.138;2022-10-16T04:36:15;2.08;;;0.80;;
41532;SDS011;27262;-35.248;149.138;2022-10-16T04:38:45;2.42;;;0.85;;
41532;SDS011;27262;-35.248;149.138;2022-10-16T04:41:18;3.33;;;0.68;;
41532;SDS011;27262;-35.248;149.138;2022-10-16T04:43:48;3.25;;;0.82;;
41532;SDS011;27262;-35.248;149.138;2022-10-16T04:46:19;4.22;;;0.93;;
41532;SDS011;27262;-35.248;149.138;2022-10-16T04:48:49;3.58;;;1.10;;
41532;SDS011;27262;-35.248;149.138;2022-10-16T04:51:19;3.65;;;1.00;;
41532;SDS011;27262;-35.248;149.138;2022-10-16T04:53:49;2.55;;;0.82;;
41532;SDS011;27262;-35.248;149.138;2022-10-16T04:56:20;2.65;;;0.80;;
41532;SDS011;27262;-35.248;149.138;2022-10-16T04:58:51;3.55;;;0.90;;
41532;SDS011;27262;-35.248;149.138;2022-10-16T05:01:21;4.00;;;0.77;;
41532;SDS011;27262;-35.248;149.138;2022-10-16T05:03:51;1.40;;;0.75;;
41532;SDS011;27262;-35.248;149.138;2022-10-16T05:06:21;2.65;;;0.80;;
41532;SDS011;27262;-35.248;149.138;2022-10-16T05:09:00;3.63;;;0.70;;
41532;SDS011;27262;-35.248;149.138;2022-10-16T05:11:31;2.85;;;1.20;;
41532;SDS011;27262;-35.248;149.138;2022-10-16T05:14:01;2.50;;;0.80;;
41532;SDS011;27262;-35.248;149.138;2022-10-16T05:16:32;3.75;;;0.80;;
41532;SDS011;27262;-35.248;149.138;2022-10-16T05:19:02;1.30;;;0.60;;
41532;SDS011;27262;-35.248;149.138;2022-10-16T05:21:52;2.63;;;0.70;;
41532;SDS011;27262;-35.248;149.138;2022-10-16T05:24:23;4.05;;;0.88;;
41532;SDS011;27262;-35.248;149.138;2022-10-16T05:26:53;3.13;;;0.70;;
41532;SDS011;27262;-35.248;149.138;2022-10-16T05:29:24;1.88;;;0.70;;
41532;SDS011;27262;-35.248;149.138;2022-10-16T05:31:54;4.95;;;1.02;;
41532;SDS011;27262;-35.248;149.138;2022-10-16T05:34:24;3.58;;;1.40;;
41532;SDS011;27262;-35.248;149.138;2022-10-16T05:36:54;2.50;;;0.63;;
41532;SDS011;27262;-35.248;149.138;2022-10-16T05:39:25;1.17;;;0.45;;
41532;SDS011;27262;-35.248;149.138;2022-10-16T05:41:55;1.45;;;0.73;;
41532;SDS011;27262;-35.248;149.138;2022-10-16T05:44:26;2.90;;;0.60;;
41532;SDS011;27262;-35.248;149.138;2022-10-16T05:46:56;3.80;;;0.70;;
41532;SDS011;27262;-35.248;149.138;2022-10-16T05:49:26;2.30;;;0.68;;
41532;SDS011;27262;-35.248;149.138;2022-10-16T05:51:57;1.00;;;0.60;;
41532;SDS011;27262;-35.248;149.138;2022-10-16T05:54:27;2.10;;;0.77;;
41532;SDS011;27262;-35.248;149.138;2022-10-16T05:56:57;1.98;;;0.40;;
41532;SDS011;27262;-35.248;149.138;2022-10-16T05:59:27;1.83;;;0.80;;
41532;SDS011;27262;-35.248;149.138;2022-10-16T06:01:57;2.30;;;0.70;;
41532;SDS011;27262;-35.248;149.138;2022-10-16T06:04:27;3.50;;;0.60;;
41532;SDS011;27262;-35.248;149.138;2022-10-16T06:06:58;3.88;;;0.95;;
41532;SDS011;27262;-35.248;149.138;2022-10-16T06:09:31;1.65;;;0.60;;
41532;SDS011;27262;-35.248;149.138;2022-10-16T06:12:01;2.15;;;0.80;;
41532;SDS011;27262;-35.248;149.138;2022-10-16T06:14:32;3.10;;;0.65;;
41532;SDS011;27262;-35.248;149.138;2022-10-16T06:17:02;1.00;;;0.60;;
41532;SDS011;27262;-35.248;149.138;2022-10-16T06:19:32;1.25;;;0.60;;
41532;SDS011;27262;-35.248;149.138;2022-10-16T06:22:03;1.55;;;0.50;;
41532;SDS011;27262;-35.248;149.138;2022-10-16T06:24:33;1.42;;;0.65;;
41532;SDS011;27262;-35.248;149.138;2022-10-16T06:27:04;1.00;;;0.50;;
41532;SDS011;27262;-35.248;149.138;2022-10-16T06:29:34;3.20;;;0.73;;
41532;SDS011;27262;-35.248;149.138;2022-10-16T06:32:04;1.48;;;0.60;;
41532;SDS011;27262;-35.248;149.138;2022-10-16T06:34:35;2.58;;;0.95;;
41532;SDS011;27262;-35.248;149.138;2022-10-16T06:37:09;2.17;;;0.70;;
41532;SDS011;27262;-35.248;149.138;2022-10-16T06:39:40;2.63;;;0.80;;
41532;SDS011;27262;-35.248;149.138;2022-10-16T06:42:10;1.65;;;0.70;;
41532;SDS011;27262;-35.248;149.138;2022-10-16T06:44:40;4.63;;;0.57;;
41532;SDS011;27262;-35.248;149.138;2022-10-16T06:47:11;1.38;;;0.60;;
41532;SDS011;27262;-35.248;149.138;2022-10-16T06:49:41;4.72;;;0.80;;
41532;SDS011;27262;-35.248;149.138;2022-10-16T06:52:16;3.92;;;0.75;;
41532;SDS011;27262;-35.248;149.138;2022-10-16T06:54:46;5.15;;;0.90;;
41532;SDS011;27262;-35.248;149.138;2022-10-16T06:57:17;0.80;;;0.60;;
41532;SDS011;27262;-35.248;149.138;2022-10-16T06:59:47;1.00;;;0.57;;
41532;SDS011;27262;-35.248;149.138;2022-10-16T07:02:21;2.15;;;0.50;;
41532;SDS011;27262;-35.248;149.138;2022-10-16T07:04:52;6.22;;;0.70;;
41532;SDS011;27262;-35.248;149.138;2022-10-16T07:07:22;2.95;;;0.65;;
41532;SDS011;27262;-35.248;149.138;2022-10-16T07:09:54;1.52;;;0.50;;
41532;SDS011;27262;-35.248;149.138;2022-10-16T07:12:25;1.65;;;0.55;;
41532;SDS011;27262;-35.248;149.138;2022-10-16T07:14:55;3.17;;;0.80;;
41532;SDS011;27262;-35.248;149.138;2022-10-16T07:17:25;3.53;;;0.70;;
41532;SDS011;27262;-35.248;149.138;2022-10-16T07:19:55;1.42;;;0.60;;
41532;SDS011;27262;-35.248;149.138;2022-10-16T07:22:27;1.95;;;0.50;;
41532;SDS011;27262;-35.248;149.138;2022-10-16T07:24:58;4.03;;;0.82;;
41532;SDS011;27262;-35.248;149.138;2022-10-16T07:27:28;4.00;;;0.70;;
41532;SDS011;27262;-35.248;149.138;2022-10-16T07:29:58;1.48;;;0.50;;
41532;SDS011;27262;-35.248;149.138;2022-10-16T07:32:34;1.30;;;0.43;;
41532;SDS011;27262;-35.248;149.138;2022-10-16T07:35:04;2.17;;;0.57;;
41532;SDS011;27262;-35.248;149.138;2022-10-16T07:37:35;1.77;;;0.52;;
41532;SDS011;27262;-35.248;149.138;2022-10-16T07:40:05;2.42;;;0.60;;
41532;SDS011;27262;-35.248;149.138;2022-10-16T07:42:36;3.05;;;0.68;;
41532;SDS011;27262;-35.248;149.138;2022-10-16T07:45:06;1.52;;;0.60;;
41532;SDS011;27262;-35.248;149.138;2022-10-16T07:47:37;1.70;;;0.70;;
41532;SDS011;27262;-35.248;149.138;2022-10-16T07:50:08;2.85;;;0.60;;
41532;SDS011;27262;-35.248;149.138;2022-10-16T07:52:38;1.60;;;0.50;;
41532;SDS011;27262;-35.248;149.138;2022-10-16T07:55:09;4.50;;;0.60;;
41532;SDS011;27262;-35.248;149.138;2022-10-16T07:57:39;2.08;;;0.52;;
41532;SDS011;27262;-35.248;149.138;2022-10-16T08:00:10;3.72;;;0.40;;
41532;SDS011;27262;-35.248;149.138;2022-10-16T08:02:42;3.05;;;0.80;;
41532;SDS011;27262;-35.248;149.138;2022-10-16T08:05:12;1.73;;;0.50;;
41532;SDS011;27262;-35.248;149.138;2022-10-16T08:07:43;1.70;;;0.50;;
41532;SDS011;27262;-35.248;149.138;2022-10-16T08:10:18;2.58;;;0.60;;
41532;SDS011;27262;-35.248;149.138;2022-10-16T08:12:50;2.33;;;0.70;;
41532;SDS011;27262;-35.248;149.138;2022-10-16T08:15:20;1.00;;;0.50;;
41532;SDS011;27262;-35.248;149.138;2022-10-16T08:17:54;2.35;;;0.47;;
41532;SDS011;27262;-35.248;149.138;2022-10-16T08:20:29;1.75;;;0.55;;
41532;SDS011;27262;-35.248;149.138;2022-10-16T08:23:01;1.15;;;0.50;;
41532;SDS011;27262;-35.248;149.138;2022-10-16T08:25:34;1.77;;;0.63;;
41532;SDS011;27262;-35.248;149.138;2022-10-16T08:28:08;1.77;;;0.50;;
41532;SDS011;27262;-35.248;149.138;2022-10-16T08:30:39;1.35;;;0.60;;
41532;SDS011;27262;-35.248;149.138;2022-10-16T08:33:10;0.85;;;0.50;;
41532;SDS011;27262;-35.248;149.138;2022-10-16T08:35:40;1.83;;;0.50;;
41532;SDS011;27262;-35.248;149.138;2022-10-16T08:38:10;0.88;;;0.45;;
41532;SDS011;27262;-35.248;149.138;2022-10-16T08:40:41;1.08;;;0.60;;
41532;SDS011;27262;-35.248;149.138;2022-10-16T08:48:46;1.70;;;0.60;;
41532;SDS011;27262;-35.248;149.138;2022-10-16T08:54:03;3.30;;;0.85;;
41532;SDS011;27262;-35.248;149.138;2022-10-16T08:56:37;3.17;;;0.50;;
41532;SDS011;27262;-35.248;149.138;2022-10-16T08:59:10;1.13;;;0.50;;
41532;SDS011;27262;-35.248;149.138;2022-10-16T09:01:46;2.05;;;0.63;;
41532;SDS011;27262;-35.248;149.138;2022-10-16T09:18:15;1.10;;;0.60;;
41532;SDS011;27262;-35.248;149.138;2022-10-16T09:21:10;2.28;;;0.50;;
41532;SDS011;27262;-35.248;149.138;2022-10-16T09:23:47;0.70;;;0.40;;
41532;SDS011;27262;-35.248;149.138;2022-10-16T09:26:18;1.70;;;0.47;;
41532;SDS011;27262;-35.248;149.138;2022-10-16T09:28:51;1.65;;;0.50;;
41532;SDS011;27262;-35.248;149.138;2022-10-16T09:31:22;0.90;;;0.40;;
41532;SDS011;27262;-35.248;149.138;2022-10-16T09:33:53;1.13;;;0.55;;
41532;SDS011;27262;-35.248;149.138;2022-10-16T09:36:27;1.48;;;0.65;;
41532;SDS011;27262;-35.248;149.138;2022-10-16T09:39:03;1.88;;;0.40;;
41532;SDS011;27262;-35.248;149.138;2022-10-16T09:41:35;2.97;;;0.60;;
41532;SDS011;27262;-35.248;149.138;2022-10-16T09:44:17;0.98;;;0.43;;
41532;SDS011;27262;-35.248;149.138;2022-10-16T09:47:04;3.97;;;0.63;;
41532;SDS011;27262;-35.248;149.138;2022-10-16T09:49:50;1.52;;;0.65;;
41532;SDS011;27262;-35.248;149.138;2022-10-16T09:52:25;2.55;;;0.88;;
41532;SDS011;27262;-35.248;149.138;2022-10-16T09:54:56;1.55;;;0.40;;
41532;SDS011;27262;-35.248;149.138;2022-10-16T09:57:28;0.93;;;0.50;;
41532;SDS011;27262;-35.248;149.138;2022-10-16T09:59:59;1.58;;;0.47;;
41532;SDS011;27262;-35.248;149.138;2022-10-16T10:02:34;1.02;;;0.40;;
41532;SDS011;27262;-35.248;149.138;2022-10-16T10:05:21;3.28;;;0.45;;
41532;SDS011;27262;-35.248;149.138;2022-10-16T10:07:58;2.05;;;0.50;;
41532;SDS011;27262;-35.248;149.138;2022-10-16T10:10:41;0.73;;;0.40;;
41532;SDS011;27262;-35.248;149.138;2022-10-16T10:13:30;1.02;;;0.32;;
41532;SDS011;27262;-35.248;149.138;2022-10-16T10:16:00;1.10;;;0.40;;
41532;SDS011;27262;-35.248;149.138;2022-10-16T10:18:31;2.72;;;0.40;;
41532;SDS011;27262;-35.248;149.138;2022-10-16T10:21:02;0.60;;;0.40;;
41532;SDS011;27262;-35.248;149.138;2022-10-16T10:23:34;0.85;;;0.50;;
41532;SDS011;27262;-35.248;149.138;2022-10-16T10:26:06;1.15;;;0.60;;
41532;SDS011;27262;-35.248;149.138;2022-10-16T10:28:52;2.08;;;0.40;;
41532;SDS011;27262;-35.248;149.138;2022-10-16T10:31:59;1.73;;;0.50;;
41532;SDS011;27262;-35.248;149.138;2022-10-16T10:34:56;2.40;;;0.52;;
41532;SDS011;27262;-35.248;149.138;2022-10-16T10:45:51;3.47;;;0.40;;
41532;SDS011;27262;-35.248;149.138;2022-10-16T10:51:19;0.75;;;0.40;;
41532;SDS011;27262;-35.248;149.138;2022-10-16T10:54:17;2.13;;;0.40;;
41532;SDS011;27262;-35.248;149.138;2022-10-16T11:02:35;1.10;;;0.47;;
41532;SDS011;27262;-35.248;149.138;2022-10-16T11:08:08;0.85;;;0.40;;
41532;SDS011;27262;-35.248;149.138;2022-10-16T11:11:14;1.90;;;0.50;;
41532;SDS011;27262;-35.248;149.138;2022-10-16T11:14:00;0.52;;;0.40;;
41532;SDS011;27262;-35.248;149.138;2022-10-16T11:16:54;1.52;;;0.50;;
41532;SDS011;27262;-35.248;149.138;2022-10-16T11:25:13;2.60;;;0.60;;
41532;SDS011;27262;-35.248;149.138;2022-10-16T11:46:50;3.35;;;0.82;;
41532;SDS011;27262;-35.248;149.138;2022-10-16T11:50:02;2.90;;;0.55;;
41532;SDS011;27262;-35.248;149.138;2022-10-16T11:52:44;1.95;;;0.38;;
41532;SDS011;27262;-35.248;149.138;2022-10-16T12:09:00;2.00;;;0.50;;
41532;SDS011;27262;-35.248;149.138;2022-10-16T12:11:33;1.67;;;0.35;;
41532;SDS011;27262;-35.248;149.138;2022-10-16T12:16:51;0.90;;;0.38;;
41532;SDS011;27262;-35.248;149.138;2022-10-16T12:19:22;0.65;;;0.30;;
41532;SDS011;27262;-35.248;149.138;2022-10-16T12:21:55;0.88;;;0.43;;
41532;SDS011;27262;-35.248;149.138;2022-10-16T12:24:29;0.45;;;0.30;;
41532;SDS011;27262;-35.248;149.138;2022-10-16T12:27:01;2.47;;;0.50;;
41532;SDS011;27262;-35.248;149.138;2022-10-16T12:29:37;1.35;;;0.50;;
41532;SDS011;27262;-35.248;149.138;2022-10-16T12:35:32;1.98;;;0.52;;
41532;SDS011;27262;-35.248;149.138;2022-10-16T12:38:16;1.75;;;0.50;;
41532;SDS011;27262;-35.248;149.138;2022-10-16T12:41:07;3.72;;;0.75;;
41532;SDS011;27262;-35.248;149.138;2022-10-16T12:43:43;2.65;;;0.60;;
41532;SDS011;27262;-35.248;149.138;2022-10-16T12:48:45;2.72;;;0.80;;
41532;SDS011;27262;-35.248;149.138;2022-10-16T12:51:35;6.20;;;1.23;;
41532;SDS011;27262;-35.248;149.138;2022-10-16T13:16:36;5.85;;;0.90;;
41532;SDS011;27262;-35.248;149.138;2022-10-16T13:30:31;3.63;;;0.82;;
41532;SDS011;27262;-35.248;149.138;2022-10-16T13:33:17;3.92;;;1.00;;
41532;SDS011;27262;-35.248;149.138;2022-10-16T13:35:54;4.30;;;0.77;;
41532;SDS011;27262;-35.248;149.138;2022-10-16T13:38:26;2.30;;;0.80;;
41532;SDS011;27262;-35.248;149.138;2022-10-16T13:41:03;2.85;;;0.90;;
41532;SDS011;27262;-35.248;149.138;2022-10-16T13:43:51;2.95;;;0.80;;
41532;SDS011;27262;-35.248;149.138;2022-10-16T13:46:25;4.07;;;1.00;;
41532;SDS011;27262;-35.248;149.138;2022-10-16T13:49:03;2.97;;;0.98;;
41532;SDS011;27262;-35.248;149.138;2022-10-16T13:51:40;2.10;;;0.80;;
41532;SDS011;27262;-35.248;149.138;2022-10-16T13:54:10;4.03;;;0.88;;
41532;SDS011;27262;-35.248;149.138;2022-10-16T13:56:40;3.58;;;0.98;;
41532;SDS011;27262;-35.248;149.138;2022-10-16T14:01:55;3.28;;;0.77;;
41532;SDS011;27262;-35.248;149.138;2022-10-16T14:04:27;4.10;;;0.82;;
41532;SDS011;27262;-35.248;149.138;2022-10-16T14:07:01;3.10;;;0.98;;
41532;SDS011;27262;-35.248;149.138;2022-10-16T14:09:32;2.70;;;0.70;;
41532;SDS011;27262;-35.248;149.138;2022-10-16T14:12:08;4.38;;;1.08;;
41532;SDS011;27262;-35.248;149.138;2022-10-16T14:14:44;4.55;;;0.90;;
41532;SDS011;27262;-35.248;149.138;2022-10-16T14:17:24;2.00;;;0.63;;
41532;SDS011;27262;-35.248;149.138;2022-10-16T14:19:58;4.03;;;1.17;;
41532;SDS011;27262;-35.248;149.138;2022-10-16T14:22:36;3.70;;;0.80;;
41532;SDS011;27262;-35.248;149.138;2022-10-16T14:30:33;3.83;;;1.33;;
41532;SDS011;27262;-35.248;149.138;2022-10-16T14:33:06;3.05;;;1.02;;
41532;SDS011;27262;-35.248;149.138;2022-10-16T14:36:34;2.40;;;1.08;;
41532;SDS011;27262;-35.248;149.138;2022-10-16T14:38:40;2.83;;;0.88;;
41532;SDS011;27262;-35.248;149.138;2022-10-16T14:41:21;1.98;;;0.70;;
41532;SDS011;27262;-35.248;149.138;2022-10-16T14:43:56;2.13;;;0.73;;
41532;SDS011;27262;-35.248;149.138;2022-10-16T14:46:36;1.52;;;0.70;;
41532;SDS011;27262;-35.248;149.138;2022-10-16T14:51:39;3.42;;;0.75;;
41532;SDS011;27262;-35.248;149.138;2022-10-16T14:54:13;4.22;;;0.80;;
41532;SDS011;27262;-35.248;149.138;2022-10-16T14:56:52;2.30;;;0.95;;
41532;SDS011;27262;-35.248;149.138;2022-10-16T14:59:32;2.92;;;0.70;;
41532;SDS011;27262;-35.248;149.138;2022-10-16T15:02:22;2.70;;;1.02;;
41532;SDS011;27262;-35.248;149.138;2022-10-16T15:04:58;3.00;;;0.70;;
41532;SDS011;27262;-35.248;149.138;2022-10-16T15:07:39;2.03;;;0.70;;
41532;SDS011;27262;-35.248;149.138;2022-10-16T15:10:09;1.30;;;0.60;;
41532;SDS011;27262;-35.248;149.138;2022-10-16T15:12:40;1.67;;;0.80;;
41532;SDS011;27262;-35.248;149.138;2022-10-16T15:17:53;2.17;;;0.82;;
41532;SDS011;27262;-35.248;149.138;2022-10-16T15:20:26;2.47;;;0.73;;
41532;SDS011;27262;-35.248;149.138;2022-10-16T15:22:59;2.33;;;0.60;;
41532;SDS011;27262;-35.248;149.138;2022-10-16T15:25:41;2.03;;;0.63;;
41532;SDS011;27262;-35.248;149.138;2022-10-16T15:28:13;1.63;;;0.70;;
41532;SDS011;27262;-35.248;149.138;2022-10-16T15:30:44;1.70;;;0.70;;
41532;SDS011;27262;-35.248;149.138;2022-10-16T15:33:16;3.22;;;0.90;;
41532;SDS011;27262;-35.248;149.138;2022-10-16T15:35:50;1.65;;;0.60;;
41532;SDS011;27262;-35.248;149.138;2022-10-16T15:38:23;2.95;;;0.82;;
41532;SDS011;27262;-35.248;149.138;2022-10-16T15:40:57;4.25;;;0.90;;
41532;SDS011;27262;-35.248;149.138;2022-10-16T15:43:27;1.15;;;0.57;;
41532;SDS011;27262;-35.248;149.138;2022-10-16T15:46:09;2.28;;;0.50;;
41532;SDS011;27262;-35.248;149.138;2022-10-16T15:48:42;1.73;;;0.60;;
41532;SDS011;27262;-35.248;149.138;2022-10-16T15:51:13;1.95;;;0.63;;
41532;SDS011;27262;-35.248;149.138;2022-10-16T15:53:43;1.60;;;0.60;;
41532;SDS011;27262;-35.248;149.138;2022-10-16T15:56:14;1.67;;;0.60;;
41532;SDS011;27262;-35.248;149.138;2022-10-16T15:58:45;1.33;;;0.60;;
41532;SDS011;27262;-35.248;149.138;2022-10-16T16:01:15;2.35;;;0.60;;
41532;SDS011;27262;-35.248;149.138;2022-10-16T16:03:45;1.08;;;0.70;;
41532;SDS011;27262;-35.248;149.138;2022-10-16T16:06:15;1.40;;;0.55;;
41532;SDS011;27262;-35.248;149.138;2022-10-16T16:08:46;1.73;;;0.50;;
41532;SDS011;27262;-35.248;149.138;2022-10-16T16:11:16;1.30;;;0.60;;
41532;SDS011;27262;-35.248;149.138;2022-10-16T16:13:47;0.90;;;0.47;;
41532;SDS011;27262;-35.248;149.138;2022-10-16T16:16:17;0.98;;;0.57;;
41532;SDS011;27262;-35.248;149.138;2022-10-16T16:18:48;1.55;;;0.60;;
41532;SDS011;27262;-35.248;149.138;2022-10-16T16:21:22;2.45;;;0.70;;
41532;SDS011;27262;-35.248;149.138;2022-10-16T16:23:52;1.23;;;0.63;;
41532;SDS011;27262;-35.248;149.138;2022-10-16T16:26:24;1.42;;;0.43;;
41532;SDS011;27262;-35.248;149.138;2022-10-16T16:29:00;1.10;;;0.52;;
41532;SDS011;27262;-35.248;149.138;2022-10-16T16:31:32;1.00;;;0.40;;
41532;SDS011;27262;-35.248;149.138;2022-10-16T16:34:03;0.77;;;0.30;;
41532;SDS011;27262;-35.248;149.138;2022-10-16T16:36:35;2.22;;;0.60;;
41532;SDS011;27262;-35.248;149.138;2022-10-16T16:39:06;1.40;;;0.50;;
41532;SDS011;27262;-35.248;149.138;2022-10-16T16:41:37;1.40;;;0.50;;
41532;SDS011;27262;-35.248;149.138;2022-10-16T16:44:08;1.40;;;0.45;;
41532;SDS011;27262;-35.248;149.138;2022-10-16T16:46:40;1.55;;;0.43;;
41532;SDS011;27262;-35.248;149.138;2022-10-16T16:49:12;0.85;;;0.50;;
41532;SDS011;27262;-35.248;149.138;2022-10-16T16:51:43;0.95;;;0.57;;
41532;SDS011;27262;-35.248;149.138;2022-10-16T16:54:14;1.00;;;0.50;;
41532;SDS011;27262;-35.248;149.138;2022-10-16T16:56:44;1.30;;;0.55;;
41532;SDS011;27262;-35.248;149.138;2022-10-16T16:59:18;1.00;;;0.50;;
41532;SDS011;27262;-35.248;149.138;2022-10-16T17:01:50;0.90;;;0.40;;
41532;SDS011;27262;-35.248;149.138;2022-10-16T17:04:23;1.55;;;0.50;;
41532;SDS011;27262;-35.248;149.138;2022-10-16T17:06:53;2.30;;;0.65;;
41532;SDS011;27262;-35.248;149.138;2022-10-16T17:09:24;1.02;;;0.50;;